Time;durP1;ratioP1;P1;durP2;ratioP2;P2;SDS_P1;SDS_P2;PMS_P1;PMS_P2;Temp;Humidity;BMP_temperature;BMP_pressure;BME280_temperature;BME280_humidity;BME280_pressure;Samples;Min_cycle;Max_cycle;Signal;HPM_P1;HPM_P2
2023/03/15 00:00:46;;;;;;;3.03;2.10;;;5.10;54.90;;;;;;20776;6826;123106;-76
2023/03/15 00:03:13;;;;;;;2.47;2.28;;;5.10;54.90;;;;;;20555;6826;306099;-78
2023/03/15 00:05:38;;;;;;;1.93;1.83;;;5.40;55.30;;;;;;20753;6826;119866;-80
2023/03/15 00:08:03;;;;;;;1.90;1.80;;;5.30;55.20;;;;;;20757;6826;120579;-76
2023/03/15 00:10:30;;;;;;;2.10;1.90;;;5.00;56.80;;;;;;20783;6826;116855;-77
2023/03/15 00:12:55;;;;;;;2.20;2.10;;;5.00;56.10;;;;;;20783;6826;116944;-80
2023/03/15 00:15:22;;;;;;;2.10;2.00;;;4.90;57.70;;;;;;20782;6826;117223;-78
2023/03/15 00:17:47;;;;;;;2.77;2.60;;;4.90;57.20;;;;;;20548;6826;298731;-78
2023/03/15 00:20:18;;;;;;;2.40;2.30;;;5.20;56.50;;;;;;20774;6826;117748;-77
2023/03/15 00:22:41;;;;;;;2.87;2.67;;;5.20;56.20;;;;;;20565;6826;319648;-78
2023/03/15 00:25:07;;;;;;;2.97;2.78;;;5.50;55.60;;;;;;20563;6826;311236;-77
2023/03/15 00:27:33;;;;;;;2.70;2.50;;;5.90;54.50;;;;;;20751;6826;117546;-77
2023/03/15 00:29:58;;;;;;;2.20;2.10;;;5.80;54.30;;;;;;20778;6826;117709;-77
2023/03/15 00:32:24;;;;;;;2.22;2.12;;;5.60;55.10;;;;;;20772;6826;117013;-78
2023/03/15 00:34:53;;;;;;;3.00;2.80;;;5.40;55.70;;;;;;20556;6826;338112;-77
2023/03/15 00:37:15;;;;;;;2.80;2.60;;;5.60;54.90;;;;;;20761;6826;120322;-77
2023/03/15 00:39:41;;;;;;;46.97;37.23;;;5.60;54.80;;;;;;20528;6826;336108;-78
2023/03/15 00:42:06;;;;;;;8.17;7.37;;;5.80;54.60;;;;;;20775;6826;118948;-79
2023/03/15 00:44:32;;;;;;;3.57;2.83;;;5.80;54.80;;;;;;20775;6826;117956;-76
2023/03/15 00:46:57;;;;;;;2.83;2.63;;;5.70;55.50;;;;;;20775;6824;116782;-76
2023/03/15 00:49:23;;;;;;;2.77;2.50;;;5.60;56.10;;;;;;20777;6825;117006;-79
2023/03/15 00:51:48;;;;;;;3.63;3.33;;;5.40;56.30;;;;;;20543;6826;278263;-76
2023/03/15 00:54:14;;;;;;;4.17;2.93;;;5.60;55.20;;;;;;20779;6826;117335;-76
2023/03/15 00:56:41;;;;;;;3.67;3.37;;;5.70;55.30;;;;;;20563;6826;335881;-78
2023/03/15 00:59:07;;;;;;;3.73;3.37;;;5.90;54.70;;;;;;20774;6826;117396;-76
2023/03/15 01:01:33;;;;;;;4.37;3.97;;;5.90;54.70;;;;;;20539;6826;277624;-76
2023/03/15 01:03:58;;;;;;;5.17;3.90;;;6.10;54.10;;;;;;20566;6826;278681;-76
2023/03/15 01:06:24;;;;;;;4.25;3.95;;;6.50;53.30;;;;;;20562;6826;306516;-76
2023/03/15 01:08:50;;;;;;;4.20;3.80;;;7.00;52.20;;;;;;20555;6826;277014;-76
2023/03/15 01:11:16;;;;;;;3.47;3.13;;;7.00;52.20;;;;;;20777;6826;116890;-77
2023/03/15 01:13:41;;;;;;;5.03;3.97;;;6.80;52.40;;;;;;20543;6826;313678;-76
2023/03/15 01:16:07;;;;;;;4.45;3.75;;;6.80;51.60;;;;;;20573;6826;277968;-76
2023/03/15 01:18:33;;;;;;;4.20;3.40;;;6.70;51.30;;;;;;20772;6826;117528;-80
2023/03/15 01:20:59;;;;;;;5.87;3.83;;;6.70;51.30;;;;;;20561;6826;306408;-76
2023/03/15 01:23:25;;;;;;;4.43;3.67;;;6.90;50.40;;;;;;20567;6826;276589;-76
2023/03/15 01:25:51;;;;;;;5.10;3.20;;;6.90;50.40;;;;;;20755;6826;118079;-76
2023/03/15 01:28:16;;;;;;;5.23;2.97;;;6.70;50.90;;;;;;20774;6826;120102;-76
2023/03/15 01:30:49;;;;;;;4.87;3.42;;;6.30;51.80;;;;;;20557;6826;339850;-76
2023/03/15 01:33:14;;;;;;;4.73;2.83;;;6.30;52.00;;;;;;20764;6826;116966;-77
2023/03/15 01:35:40;;;;;;;6.03;3.70;;;6.30;52.50;;;;;;20542;6826;308371;-77
2023/03/15 01:38:05;;;;;;;3.92;3.50;;;6.30;52.60;;;;;;20555;6826;335370;-78
2023/03/15 01:40:32;;;;;;;3.23;3.03;;;6.60;52.60;;;;;;20726;6826;118056;-77
2023/03/15 01:43:05;;;;;;;3.85;3.20;;;6.40;52.70;;;;;;20558;6826;306881;-77
2023/03/15 01:45:54;;;;;;;3.57;2.90;;;6.50;52.50;;;;;;20772;6826;116688;-76
2023/03/15 01:48:20;;;;;;;4.63;2.37;;;6.30;52.60;;;;;;20768;6826;119830;-76
2023/03/15 01:50:46;;;;;;;3.50;2.40;;;6.00;53.40;;;;;;20776;6826;116799;-76
2023/03/15 01:53:14;;;;;;;3.37;2.97;;;5.70;54.00;;;;;;20568;6826;300782;-76
2023/03/15 01:55:40;;;;;;;4.10;3.00;;;5.80;53.70;;;;;;20540;6826;307362;-76
2023/03/15 01:58:06;;;;;;;4.93;3.08;;;6.10;53.00;;;;;;20546;6824;336931;-76
2023/03/15 02:00:31;;;;;;;4.57;2.40;;;6.40;52.30;;;;;;20760;6825;117180;-76
2023/03/15 02:02:57;;;;;;;4.30;3.00;;;6.20;52.40;;;;;;20559;6826;325183;-76
2023/03/15 02:05:28;;;;;;;6.03;3.20;;;6.20;52.30;;;;;;20538;6826;305244;-76
2023/03/15 02:07:54;;;;;;;4.87;2.60;;;6.30;51.40;;;;;;20530;6826;306444;-77
2023/03/15 02:10:30;;;;;;;5.03;2.85;;;6.60;50.50;;;;;;20558;6826;276659;-80
2023/03/15 02:12:56;;;;;;;4.20;2.70;;;6.60;50.50;;;;;;20545;6826;311112;-78
2023/03/15 02:15:21;;;;;;;5.87;2.57;;;6.70;50.20;;;;;;20773;6826;119624;-77
2023/03/15 02:17:46;;;;;;;3.78;2.37;;;6.40;50.80;;;;;;20542;6826;297937;-78
2023/03/15 02:20:35;;;;;;;2.50;1.90;;;6.30;50.80;;;;;;20780;6826;116814;-77
2023/03/15 02:23:04;;;;;;;3.45;2.20;;;6.00;51.30;;;;;;20551;6826;276977;-78
2023/03/15 02:25:53;;;;;;;2.73;2.17;;;5.90;51.70;;;;;;20769;6826;117290;-78
2023/03/15 02:28:19;;;;;;;4.03;1.60;;;5.80;51.60;;;;;;20776;6826;116862;-77
2023/03/15 02:30:45;;;;;;;5.17;2.37;;;5.50;52.40;;;;;;20558;6826;277518;-77
2023/03/15 02:33:14;;;;;;;4.73;2.63;;;5.50;52.40;;;;;;20557;6826;307621;-77
2023/03/15 02:35:40;;;;;;;4.23;2.00;;;5.80;51.80;;;;;;20736;6826;133107;-77
2023/03/15 02:38:05;;;;;;;3.53;1.90;;;5.70;52.00;;;;;;20756;6826;116818;-77
2023/03/15 02:40:32;;;;;;;4.67;2.50;;;5.50;52.70;;;;;;20559;6826;306829;-81
2023/03/15 02:43:00;;;;;;;3.07;1.90;;;5.40;52.70;;;;;;20773;6826;117113;-77
2023/03/15 02:45:26;;;;;;;4.18;2.50;;;5.40;52.80;;;;;;20525;6826;301039;-78
2023/03/15 02:47:52;;;;;;;6.15;2.25;;;5.40;52.60;;;;;;20741;6826;117400;-77
2023/03/15 02:50:18;;;;;;;2.30;1.70;;;5.40;52.50;;;;;;20768;6826;119722;-77
2023/03/15 02:52:43;;;;;;;2.03;1.92;;;5.10;53.20;;;;;;20756;6826;118475;-78
2023/03/15 02:55:10;;;;;;;5.40;2.53;;;5.00;54.00;;;;;;20546;6826;306499;-77
2023/03/15 02:57:36;;;;;;;4.10;2.60;;;5.10;53.70;;;;;;20542;6826;311524;-77
2023/03/15 03:00:13;;;;;;;4.40;2.63;;;5.40;52.90;;;;;;20563;6826;306102;-77
2023/03/15 03:02:27;;;;;;;3.03;2.13;;;5.70;52.20;;;;;;20730;6826;118882;-77
2023/03/15 03:04:52;;;;;;;4.55;2.40;;;5.50;52.40;;;;;;20552;6826;314178;-77
2023/03/15 03:07:19;;;;;;;5.85;2.50;;;5.70;51.80;;;;;;20579;6826;308056;-77
2023/03/15 03:09:44;;;;;;;3.60;2.07;;;5.70;51.70;;;;;;20758;6824;117242;-77
2023/03/15 03:12:11;;;;;;;3.20;1.97;;;5.60;52.10;;;;;;20780;6825;120038;-77
2023/03/15 03:14:37;;;;;;;3.05;2.10;;;5.20;52.80;;;;;;20559;6826;307200;-77
2023/03/15 03:17:02;;;;;;;5.23;1.90;;;5.20;52.60;;;;;;20773;6826;117371;-76
2023/03/15 03:19:28;;;;;;;3.87;1.98;;;5.20;52.90;;;;;;20773;6826;119551;-77
2023/03/15 03:21:53;;;;;;;2.80;1.67;;;4.90;53.50;;;;;;20756;6826;121267;-77
2023/03/15 03:24:19;;;;;;;4.25;2.15;;;4.70;54.40;;;;;;20563;6826;335524;-77
2023/03/15 03:26:45;;;;;;;2.03;1.90;;;4.80;53.70;;;;;;20773;6826;121519;-77
2023/03/15 03:29:10;;;;;;;4.95;2.30;;;4.80;53.90;;;;;;20556;6826;335899;-77
2023/03/15 03:31:36;;;;;;;2.47;2.23;;;4.90;53.30;;;;;;20739;6826;117357;-77
2023/03/15 03:34:01;;;;;;;5.73;2.30;;;4.90;53.50;;;;;;20566;6826;305591;-77
2023/03/15 03:36:27;;;;;;;4.10;2.13;;;5.00;53.00;;;;;;20778;6826;119483;-77
2023/03/15 03:38:52;;;;;;;3.17;2.30;;;5.00;53.30;;;;;;20558;6826;311075;-77
2023/03/15 03:41:19;;;;;;;4.77;2.20;;;5.30;52.10;;;;;;20558;6826;277345;-77
2023/03/15 03:43:44;;;;;;;2.57;1.80;;;5.30;52.10;;;;;;20750;6826;120034;-77
2023/03/15 03:46:10;;;;;;;3.43;1.90;;;5.20;52.30;;;;;;20775;6826;117206;-77
2023/03/15 03:48:35;;;;;;;2.53;1.87;;;4.90;53.10;;;;;;20774;6826;116907;-76
2023/03/15 03:51:02;;;;;;;4.10;2.50;;;4.80;53.50;;;;;;20557;6826;306874;-76
2023/03/15 03:53:27;;;;;;;3.70;2.33;;;4.70;53.40;;;;;;20563;6826;276936;-77
2023/03/15 03:55:56;;;;;;;4.15;2.30;;;5.10;52.50;;;;;;20542;6826;411062;-77
2023/03/15 03:58:22;;;;;;;4.93;2.60;;;5.60;52.00;;;;;;20503;6841;277275;-76
2023/03/15 04:00:48;;;;;;;2.33;1.90;;;5.50;51.10;;;;;;20734;6832;119654;-78
2023/03/15 04:03:14;;;;;;;3.12;1.90;;;5.40;51.60;;;;;;20700;6848;118250;-79
2023/03/15 04:05:40;;;;;;;2.30;2.20;;;5.00;52.60;;;;;;20679;6848;117464;-78
2023/03/15 04:08:05;;;;;;;3.03;1.87;;;4.70;53.40;;;;;;20748;6832;117289;-77
2023/03/15 04:10:33;;;;;;;3.00;2.37;;;4.50;54.10;;;;;;20538;6832;277876;-78
2023/03/15 04:12:57;;;;;;;2.07;1.97;;;4.60;54.00;;;;;;20754;6826;117060;-77
2023/03/15 04:15:23;;;;;;;2.77;2.20;;;4.70;54.00;;;;;;20775;6826;117323;-77
2023/03/15 04:17:54;;;;;;;3.07;1.70;;;4.30;54.80;;;;;;20747;6826;117078;-77
2023/03/15 04:20:21;;;;;;;3.33;2.07;;;4.20;55.20;;;;;;20757;6824;117526;-78
2023/03/15 04:22:48;;;;;;;5.33;2.37;;;4.20;55.30;;;;;;20555;6825;320465;-77
2023/03/15 04:25:13;;;;;;;2.27;2.07;;;4.50;54.70;;;;;;20766;6826;117499;-77
2023/03/15 04:27:38;;;;;;;3.03;1.80;;;4.40;55.20;;;;;;20754;6826;116903;-77
2023/03/15 04:30:04;;;;;;;4.10;2.10;;;4.30;55.00;;;;;;20777;6826;117467;-77
2023/03/15 04:32:30;;;;;;;3.80;2.70;;;4.20;55.30;;;;;;20556;6826;306124;-78
2023/03/15 04:34:55;;;;;;;3.07;2.50;;;4.40;54.40;;;;;;20565;6826;311011;-77
2023/03/15 04:37:21;;;;;;;5.47;2.33;;;4.80;52.80;;;;;;20776;6826;122846;-77
2023/03/15 04:39:46;;;;;;;3.50;2.60;;;4.80;52.80;;;;;;20542;6826;310578;-77
2023/03/15 04:42:12;;;;;;;2.63;1.90;;;4.80;52.20;;;;;;20775;6826;116840;-75
2023/03/15 04:44:37;;;;;;;3.93;2.70;;;4.80;52.40;;;;;;20560;6826;307077;-78
2023/03/15 04:47:03;;;;;;;5.30;2.45;;;4.80;51.90;;;;;;20562;6826;306090;-78
2023/03/15 04:49:29;;;;;;;4.82;2.60;;;5.10;50.60;;;;;;20563;6826;291265;-79
2023/03/15 04:51:55;;;;;;;2.93;2.50;;;5.10;50.50;;;;;;20735;6826;116754;-77
2023/03/15 04:54:24;;;;;;;3.63;2.10;;;5.10;50.50;;;;;;20769;6826;116510;-78
2023/03/15 04:56:49;;;;;;;4.47;2.60;;;4.80;51.40;;;;;;20570;6826;277246;-77
2023/03/15 04:59:14;;;;;;;4.53;2.47;;;4.80;51.10;;;;;;20781;6826;116875;-77
2023/03/15 05:01:40;;;;;;;3.13;2.33;;;4.70;51.30;;;;;;20753;6826;117207;-77
2023/03/15 05:04:06;;;;;;;4.73;2.47;;;4.40;51.90;;;;;;20563;6826;310204;-77
2023/03/15 05:06:31;;;;;;;4.07;2.80;;;4.60;51.90;;;;;;20559;6826;294570;-77
2023/03/15 05:08:57;;;;;;;3.80;2.50;;;4.90;50.90;;;;;;20566;6826;327368;-78
2023/03/15 05:11:23;;;;;;;2.95;2.20;;;5.00;50.60;;;;;;20780;6826;117016;-79
2023/03/15 05:13:49;;;;;;;6.40;2.60;;;4.90;50.60;;;;;;20752;6826;118294;-78
2023/03/15 05:16:15;;;;;;;2.22;2.05;;;4.40;53.00;;;;;;20768;6826;116850;-76
2023/03/15 05:18:40;;;;;;;5.90;2.90;;;4.40;52.30;;;;;;20565;6826;309566;-78
2023/03/15 05:21:06;;;;;;;2.73;2.27;;;4.50;52.10;;;;;;20772;6826;117920;-76
2023/03/15 05:23:35;;;;;;;3.10;2.63;;;4.40;52.10;;;;;;20564;6826;306464;-75
2023/03/15 05:25:57;;;;;;;3.93;2.77;;;4.60;51.90;;;;;;20496;6826;277577;-76
2023/03/15 05:28:27;;;;;;;5.57;3.10;;;5.10;50.70;;;;;;20555;6826;301286;-78
2023/03/15 05:30:52;;;;;;;4.80;2.83;;;5.10;50.70;;;;;;20773;6826;117353;-79
2023/03/15 05:33:18;;;;;;;6.62;3.15;;;4.60;52.00;;;;;;20777;6824;119737;-81
2023/03/15 05:35:44;;;;;;;4.37;3.20;;;4.50;51.80;;;;;;20548;6825;277145;-78
2023/03/15 05:38:13;;;;;;;4.60;2.90;;;4.60;51.60;;;;;;20564;6826;306666;-77
2023/03/15 05:40:36;;;;;;;4.93;3.10;;;4.80;50.60;;;;;;20550;6826;306298;-76
2023/03/15 05:43:01;;;;;;;5.47;3.13;;;5.00;50.00;;;;;;20785;6826;117245;-78
2023/03/15 05:45:27;;;;;;;6.93;2.90;;;4.90;50.60;;;;;;20775;6826;120683;-76
2023/03/15 05:47:53;;;;;;;4.07;2.20;;;4.30;52.50;;;;;;20763;6826;116842;-74
2023/03/15 05:50:19;;;;;;;4.97;2.50;;;4.30;52.50;;;;;;20787;6826;117112;-77
2023/03/15 05:52:44;;;;;;;5.20;2.47;;;4.00;53.20;;;;;;20775;6826;117198;-74
2023/03/15 05:55:10;;;;;;;5.73;2.50;;;3.90;54.00;;;;;;20784;6826;119957;-75
2023/03/15 05:57:36;;;;;;;3.13;2.33;;;3.80;55.00;;;;;;20762;6826;117872;-76
2023/03/15 06:00:04;;;;;;;3.83;3.37;;;3.70;55.20;;;;;;20558;6826;281071;-76
2023/03/15 06:02:28;;;;;;;6.28;3.40;;;3.90;54.60;;;;;;20560;6826;276909;-79
2023/03/15 06:04:54;;;;;;;3.67;3.00;;;4.40;53.10;;;;;;20770;6826;116822;-79
2023/03/15 06:07:20;;;;;;;6.83;3.63;;;4.60;53.40;;;;;;20551;6826;310437;-74
2023/03/15 06:09:45;;;;;;;4.30;3.60;;;4.80;52.70;;;;;;20531;6826;305977;-76
2023/03/15 06:12:10;;;;;;;5.72;3.55;;;5.20;51.60;;;;;;20520;6826;311639;-74
2023/03/15 06:14:36;;;;;;;6.40;3.73;;;5.50;50.60;;;;;;20531;6826;277430;-76
2023/03/15 06:17:01;;;;;;;3.75;2.90;;;5.70;49.80;;;;;;20756;6826;120310;-76
2023/03/15 06:19:27;;;;;;;4.20;3.20;;;5.60;50.40;;;;;;20552;6826;279123;-75
2023/03/15 06:21:52;;;;;;;5.37;3.35;;;5.60;50.20;;;;;;20520;6826;317244;-75
2023/03/15 06:24:19;;;;;;;3.53;2.97;;;5.80;50.40;;;;;;20783;6826;120923;-82
2023/03/15 06:26:44;;;;;;;4.23;3.30;;;5.80;50.40;;;;;;20546;6826;306119;-79
2023/03/15 06:29:10;;;;;;;5.72;3.30;;;5.90;50.20;;;;;;20548;6826;277268;-76
2023/03/15 06:31:36;;;;;;;4.53;3.37;;;6.10;49.60;;;;;;20756;6826;117916;-77
2023/03/15 06:34:01;;;;;;;4.13;2.90;;;6.00;50.20;;;;;;20781;6826;117234;-78
2023/03/15 06:36:27;;;;;;;2.93;2.73;;;5.70;52.10;;;;;;20786;6826;117260;-77
2023/03/15 06:38:53;;;;;;;4.53;3.43;;;5.70;52.00;;;;;;20566;6826;276587;-75
2023/03/15 06:41:18;;;;;;;4.35;3.70;;;5.90;50.90;;;;;;20567;6826;277396;-76
2023/03/15 06:43:44;;;;;;;4.60;3.07;;;6.30;50.20;;;;;;20746;6824;120808;-77
2023/03/15 06:46:10;;;;;;;4.60;3.10;;;6.30;49.90;;;;;;20783;6825;121702;-76
2023/03/15 06:48:35;;;;;;;5.12;3.95;;;6.20;50.70;;;;;;20566;6826;313048;-75
2023/03/15 06:51:02;;;;;;;5.43;4.00;;;6.40;50.00;;;;;;20568;6826;277821;-75
2023/03/15 06:53:27;;;;;;;4.93;3.75;;;7.10;48.00;;;;;;20560;6826;307117;-76
2023/03/15 06:55:53;;;;;;;3.90;3.47;;;7.10;48.00;;;;;;20758;6826;116782;-74
2023/03/15 06:58:19;;;;;;;4.27;3.87;;;7.00;48.60;;;;;;20778;6826;117535;-75
2023/03/15 07:00:44;;;;;;;5.10;3.87;;;6.80;49.50;;;;;;20561;6826;335799;-75
2023/03/15 07:03:10;;;;;;;5.00;4.13;;;6.90;48.90;;;;;;20444;6826;313770;-74
2023/03/15 07:05:36;;;;;;;4.05;3.65;;;7.30;48.10;;;;;;20704;6826;121211;-73
2023/03/15 07:08:02;;;;;;;5.87;3.10;;;7.30;48.70;;;;;;20753;6826;118652;-76
2023/03/15 07:10:27;;;;;;;6.93;3.40;;;7.20;49.60;;;;;;20775;6826;117248;-74
2023/03/15 07:12:54;;;;;;;4.87;3.17;;;7.00;50.90;;;;;;20772;6826;116909;-74
2023/03/15 07:15:19;;;;;;;5.30;3.13;;;7.00;50.90;;;;;;20779;6826;117217;-73
2023/03/15 07:17:45;;;;;;;5.00;3.47;;;6.90;51.30;;;;;;20756;6826;117417;-73
2023/03/15 07:20:11;;;;;;;5.27;3.40;;;6.90;51.70;;;;;;20758;6826;117079;-74
2023/03/15 07:22:37;;;;;;;6.20;3.22;;;6.90;51.90;;;;;;20776;6826;116652;-73
2023/03/15 07:25:02;;;;;;;5.33;2.87;;;6.90;52.00;;;;;;20764;6826;117816;-73
2023/03/15 07:27:28;;;;;;;4.93;3.10;;;7.00;52.10;;;;;;20755;6826;118002;-73
2023/03/15 07:29:54;;;;;;;5.17;3.60;;;7.00;52.40;;;;;;20533;6826;472218;-73
2023/03/15 07:32:19;;;;;;;4.57;3.67;;;7.30;49.10;;;;;;20772;6826;123692;-73
2023/03/15 07:34:45;;;;;;;3.87;2.77;;;7.50;49.90;;;;;;20780;6826;117533;-73
2023/03/15 07:37:11;;;;;;;5.43;3.60;;;7.60;50.00;;;;;;20566;6826;305813;-73
2023/03/15 07:39:36;;;;;;;5.47;3.37;;;7.80;47.50;;;;;;20539;6826;312175;-74
2023/03/15 07:42:05;;;;;;;4.80;3.60;;;8.30;45.80;;;;;;20569;6826;278943;-75
2023/03/15 07:44:29;;;;;;;4.53;3.20;;;9.00;44.20;;;;;;20556;6826;277088;-73
2023/03/15 07:46:55;;;;;;;4.97;3.97;;;9.00;44.10;;;;;;20559;6826;307197;-73
2023/03/15 07:49:20;;;;;;;5.55;4.85;;;9.30;43.80;;;;;;20553;6826;335546;-73
2023/03/15 07:51:46;;;;;;;3.70;2.70;;;9.60;43.50;;;;;;20756;6826;119010;-75
2023/03/15 07:54:13;;;;;;;3.50;2.63;;;9.30;45.70;;;;;;20758;6826;119790;-77
2023/03/15 07:56:38;;;;;;;3.17;2.80;;;9.20;45.60;;;;;;20775;6824;120030;-75
2023/03/15 07:59:04;;;;;;;3.92;3.00;;;9.10;46.70;;;;;;20536;6825;279853;-75
2023/03/15 08:01:31;;;;;;;4.07;3.20;;;9.30;44.10;;;;;;20544;6826;335600;-76
2023/03/15 08:03:57;;;;;;;8.00;3.30;;;9.60;42.50;;;;;;20718;6826;119254;-77
2023/03/15 08:06:23;;;;;;;8.27;6.40;;;9.60;43.60;;;;;;20770;6826;117686;-74
2023/03/15 08:08:50;;;;;;;35.13;32.27;;;9.70;44.20;;;;;;20558;6826;336198;-74
2023/03/15 08:11:15;;;;;;;6.27;5.57;;;9.60;44.10;;;;;;20771;6826;116923;-74
2023/03/15 08:13:40;;;;;;;5.77;5.20;;;9.80;45.10;;;;;;20756;6826;118889;-73
2023/03/15 08:16:06;;;;;;;3.22;2.95;;;9.70;45.80;;;;;;20763;6826;116780;-74
2023/03/15 08:18:32;;;;;;;5.70;3.70;;;9.60;46.50;;;;;;20562;6826;286834;-73
2023/03/15 08:20:58;;;;;;;4.93;2.97;;;9.80;43.60;;;;;;20776;6826;118981;-73
2023/03/15 08:23:23;;;;;;;6.33;4.20;;;9.90;44.10;;;;;;20776;6826;120203;-74
2023/03/15 08:25:49;;;;;;;6.03;4.40;;;9.90;45.00;;;;;;20546;6826;309901;-73
2023/03/15 08:28:14;;;;;;;4.17;2.53;;;10.10;41.00;;;;;;20776;6826;117432;-73
2023/03/15 08:30:40;;;;;;;4.40;2.90;;;10.50;40.00;;;;;;20566;6826;337059;-73
2023/03/15 08:33:06;;;;;;;9.20;8.23;;;10.50;40.00;;;;;;20792;6826;117120;-74
2023/03/15 08:35:33;;;;;;;10.27;9.30;;;10.60;41.10;;;;;;20790;6826;116928;-74
2023/03/15 08:37:58;;;;;;;6.03;5.30;;;10.50;40.00;;;;;;20552;6826;297279;-75
2023/03/15 08:40:23;;;;;;;3.23;1.90;;;10.50;40.00;;;;;;20789;6826;117547;-75
2023/03/15 08:42:49;;;;;;;7.28;3.47;;;10.60;41.20;;;;;;20571;6826;285311;-74
2023/03/15 08:45:18;;;;;;;5.32;3.42;;;10.70;38.80;;;;;;20568;6826;280237;-73
2023/03/15 08:47:45;;;;;;;4.00;2.47;;;11.00;38.30;;;;;;20760;6826;122343;-74
2023/03/15 08:50:10;;;;;;;6.25;4.57;;;11.00;40.20;;;;;;20561;6826;306973;-72
2023/03/15 08:52:36;;;;;;;4.95;2.70;;;11.00;36.90;;;;;;20536;6826;306504;-73
2023/03/15 08:55:03;;;;;;;4.73;2.83;;;11.30;36.00;;;;;;20778;6826;117268;-73
2023/03/15 08:57:28;;;;;;;3.90;2.78;;;11.20;37.70;;;;;;20736;6826;116929;-73
2023/03/15 08:59:56;;;;;;;3.47;2.47;;;11.10;39.40;;;;;;20762;6826;120614;-76
2023/03/15 09:02:21;;;;;;;3.97;2.50;;;10.90;40.50;;;;;;20571;6826;335844;-75
2023/03/15 09:04:46;;;;;;;3.33;1.92;;;11.20;37.30;;;;;;20785;6826;117032;-76
2023/03/15 09:07:14;;;;;;;2.90;1.70;;;11.40;39.30;;;;;;20564;6824;335052;-75
2023/03/15 09:09:39;;;;;;;2.53;1.80;;;11.70;37.30;;;;;;20527;6825;306486;-77
2023/03/15 09:12:05;;;;;;;2.80;1.77;;;12.00;36.40;;;;;;20795;6826;117053;-76
2023/03/15 09:14:30;;;;;;;1.53;1.43;;;12.20;37.70;;;;;;20786;6826;117027;-77
2023/03/15 09:16:56;;;;;;;2.03;1.17;;;12.20;38.40;;;;;;20780;6826;117427;-76
2023/03/15 09:19:24;;;;;;;2.77;1.43;;;12.00;38.80;;;;;;20774;6826;117255;-73
2023/03/15 09:21:50;;;;;;;3.20;1.90;;;11.90;39.70;;;;;;20523;6826;305819;-76
2023/03/15 09:24:17;;;;;;;2.50;1.42;;;11.90;37.70;;;;;;20738;6826;117159;-76
2023/03/15 09:26:42;;;;;;;2.90;1.50;;;11.90;37.70;;;;;;20737;6826;117076;-75
2023/03/15 09:29:08;;;;;;;2.72;1.58;;;11.70;38.70;;;;;;20540;6826;280320;-75
2023/03/15 09:31:37;;;;;;;2.40;1.60;;;11.90;36.50;;;;;;20749;6826;119863;-76
2023/03/15 09:34:04;;;;;;;3.13;1.23;;;12.00;38.00;;;;;;20732;6826;122121;-75
2023/03/15 09:36:28;;;;;;;1.20;1.10;;;12.00;38.90;;;;;;20780;6826;117034;-74
2023/03/15 09:38:54;;;;;;;2.70;1.50;;;12.00;38.70;;;;;;20577;6826;311343;-75
2023/03/15 09:41:20;;;;;;;3.23;1.30;;;12.20;35.90;;;;;;20778;6826;116998;-74
2023/03/15 09:43:48;;;;;;;4.03;2.00;;;12.10;36.50;;;;;;20496;6826;312079;-75
2023/03/15 09:46:27;;;;;;;4.70;4.30;;;12.10;34.10;;;;;;20544;6826;320938;-73
2023/03/15 09:48:54;;;;;;;2.47;2.27;;;12.30;33.40;;;;;;20772;6826;117017;-73
2023/03/15 09:51:46;;;;;;;2.73;1.80;;;12.00;33.50;;;;;;20479;6826;340571;-74
2023/03/15 09:54:19;;;;;;;2.43;1.70;;;12.00;33.50;;;;;;20767;6826;118132;-74
2023/03/15 09:56:44;;;;;;;2.57;1.80;;;11.80;35.90;;;;;;20538;6826;308891;-74
2023/03/15 09:59:10;;;;;;;2.23;1.70;;;11.80;34.20;;;;;;20747;6826;119873;-74
2023/03/15 10:01:36;;;;;;;2.22;2.00;;;11.70;35.80;;;;;;20532;6826;277406;-75
2023/03/15 10:04:24;;;;;;;1.63;1.50;;;11.70;34.60;;;;;;20551;6826;306394;-74
2023/03/15 10:06:54;;;;;;;1.50;1.10;;;11.60;36.00;;;;;;20752;6826;117868;-74
2023/03/15 10:09:19;;;;;;;2.50;1.63;;;11.60;36.00;;;;;;20769;6826;120139;-73
2023/03/15 10:11:45;;;;;;;4.03;2.33;;;11.30;36.90;;;;;;20525;6826;276861;-74
2023/03/15 10:14:14;;;;;;;3.08;2.33;;;11.20;35.00;;;;;;20551;6826;307406;-73
2023/03/15 10:16:46;;;;;;;2.67;1.60;;;11.40;34.60;;;;;;20780;6826;121367;-73
2023/03/15 10:19:25;;;;;;;4.67;1.40;;;11.20;36.60;;;;;;20772;6824;119728;-73
2023/03/15 10:21:58;;;;;;;2.53;1.90;;;10.80;37.80;;;;;;20525;6825;277600;-73
2023/03/15 10:24:23;;;;;;;3.20;2.73;;;10.80;35.90;;;;;;20764;6826;116985;-74
2023/03/15 10:26:50;;;;;;;2.23;2.00;;;10.80;37.40;;;;;;20521;6826;306771;-74
2023/03/15 10:29:15;;;;;;;2.20;1.83;;;10.90;36.60;;;;;;20572;6826;305590;-74
2023/03/15 10:31:41;;;;;;;2.47;1.75;;;11.10;35.50;;;;;;20759;6826;117276;-75
2023/03/15 10:34:06;;;;;;;1.63;1.50;;;11.00;36.60;;;;;;20552;6826;309428;-74
2023/03/15 10:36:33;;;;;;;2.87;1.53;;;11.10;35.80;;;;;;20762;6826;118029;-74
2023/03/15 10:39:00;;;;;;;4.00;1.40;;;11.10;37.00;;;;;;20806;6826;70198;-73
2023/03/15 10:41:26;;;;;;;3.23;1.60;;;10.80;38.00;;;;;;20792;6826;117231;-75
2023/03/15 10:43:51;;;;;;;2.37;1.90;;;10.60;38.20;;;;;;20486;6817;280214;-74
2023/03/15 10:46:23;;;;;;;4.22;1.80;;;10.70;34.80;;;;;;20556;6817;306918;-75
2023/03/15 10:48:58;;;;;;;3.70;2.27;;;11.00;33.80;;;;;;20817;6817;117330;-73
2023/03/15 10:51:30;;;;;;;1.77;1.67;;;11.00;35.90;;;;;;20805;6817;116916;-73
2023/03/15 10:54:12;;;;;;;2.73;1.40;;;10.80;37.30;;;;;;20779;6817;123029;-72
2023/03/15 10:57:06;;;;;;;2.33;0.93;;;10.60;38.20;;;;;;20717;6817;116846;-74
2023/03/15 10:59:35;;;;;;;3.23;1.63;;;10.50;38.90;;;;;;20562;6818;277471;-75
2023/03/15 11:02:11;;;;;;;5.37;1.30;;;10.90;36.10;;;;;;20768;6818;122905;-73
2023/03/15 11:04:40;;;;;;;1.70;1.60;;;11.20;37.30;;;;;;20800;6818;117003;-70
2023/03/15 11:07:06;;;;;;;2.30;1.80;;;11.20;37.80;;;;;;20582;6818;280490;-71
2023/03/15 11:09:39;;;;;;;3.15;1.70;;;12.00;34.20;;;;;;20589;6818;277074;-71
2023/03/15 11:12:05;;;;;;;2.17;1.90;;;12.30;35.90;;;;;;20777;6818;117519;-70
2023/03/15 11:14:31;;;;;;;2.17;1.98;;;12.20;35.80;;;;;;20541;6818;280553;-70
2023/03/15 11:16:57;;;;;;;2.72;2.20;;;12.80;32.40;;;;;;20587;6818;336736;-71
2023/03/15 11:19:23;;;;;;;1.77;1.07;;;12.80;32.40;;;;;;20763;6818;119628;-71
2023/03/15 11:21:49;;;;;;;1.05;0.90;;;12.40;34.90;;;;;;20765;6818;117726;-70
2023/03/15 11:24:24;;;;;;;1.37;1.08;;;12.40;34.90;;;;;;20579;6818;339232;-72
2023/03/15 11:26:52;;;;;;;1.30;0.93;;;12.30;30.80;;;;;;20796;6818;117063;-72
2023/03/15 11:29:28;;;;;;;2.20;2.00;;;12.20;33.00;;;;;;20581;6818;281201;-73
2023/03/15 11:31:54;;;;;;;2.40;1.20;;;12.10;30.80;;;;;;20785;6816;117086;-72
2023/03/15 11:34:39;;;;;;;1.67;1.10;;;12.00;33.00;;;;;;20590;6817;310861;-71
2023/03/15 11:37:13;;;;;;;2.73;1.30;;;12.00;31.40;;;;;;20792;6817;122831;-72
2023/03/15 11:39:58;;;;;;;2.00;1.90;;;12.00;33.50;;;;;;20797;6817;117898;-73
2023/03/15 11:42:24;;;;;;;3.43;1.47;;;11.90;34.90;;;;;;20812;6817;117091;-73
2023/03/15 11:44:49;;;;;;;2.08;0.98;;;11.80;36.00;;;;;;20584;6817;277364;-72
2023/03/15 11:47:15;;;;;;;1.97;0.93;;;11.90;31.90;;;;;;20573;6817;289317;-70
2023/03/15 11:49:41;;;;;;;1.93;1.20;;;12.10;32.40;;;;;;20766;6817;117740;-71
2023/03/15 11:52:07;;;;;;;1.33;1.10;;;12.10;32.40;;;;;;20755;6817;121813;-71
2023/03/15 11:54:32;;;;;;;2.40;1.00;;;11.90;33.60;;;;;;20807;6817;117494;-70
2023/03/15 11:57:02;;;;;;;2.03;1.92;;;11.70;34.70;;;;;;20605;6817;306041;-70
2023/03/15 11:59:26;;;;;;;1.47;1.37;;;11.80;31.80;;;;;;20805;6817;117326;-69
2023/03/15 12:01:59;;;;;;;0.87;0.70;;;11.70;35.10;;;;;;20789;6817;117557;-70
2023/03/15 12:04:42;;;;;;;1.27;0.80;;;11.90;32.20;;;;;;20584;6817;313243;-71
2023/03/15 12:07:18;;;;;;;3.10;1.13;;;12.20;31.00;;;;;;20589;6818;307157;-71
2023/03/15 12:09:55;;;;;;;2.00;1.20;;;12.20;31.00;;;;;;20555;6818;306666;-70
2023/03/15 12:12:22;;;;;;;1.50;1.07;;;12.40;33.20;;;;;;20797;6818;120048;-69
2023/03/15 12:14:48;;;;;;;1.77;1.00;;;12.40;32.90;;;;;;20585;6818;306558;-68
2023/03/15 12:17:23;;;;;;;0.60;0.60;;;12.40;31.50;;;;;;20753;6818;117577;-69
2023/03/15 12:20:12;;;;;;;1.20;1.00;;;12.30;33.50;;;;;;20776;6818;123433;-71
2023/03/15 12:22:40;;;;;;;1.70;1.43;;;11.90;34.60;;;;;;20743;6818;120101;-69
2023/03/15 12:25:06;;;;;;;0.57;0.57;;;11.70;35.80;;;;;;20791;6818;117303;-69
2023/03/15 12:27:33;;;;;;;1.40;1.27;;;11.50;36.30;;;;;;20583;6818;277909;-71
2023/03/15 12:29:59;;;;;;;1.40;0.90;;;11.60;33.00;;;;;;20590;6818;325779;-72
2023/03/15 12:32:25;;;;;;;1.60;0.93;;;12.10;32.70;;;;;;20566;6818;306829;-72
2023/03/15 12:34:54;;;;;;;2.97;2.77;;;12.50;33.70;;;;;;20792;6818;118208;-71
2023/03/15 12:37:26;;;;;;;2.12;1.00;;;12.50;33.20;;;;;;20541;6818;306891;-73
2023/03/15 12:40:15;;;;;;;0.80;0.80;;;12.60;33.60;;;;;;20756;6818;148107;-70
2023/03/15 12:42:40;;;;;;;0.80;0.80;;;12.60;33.20;;;;;;20804;6816;118015;-71